Peace — WBF3649 — position and weather

sailwx.info

Track history (hours):
 
Tides and Currents Weather Stations Pressure Air Temp Water Temp Dewpoint Dewpoint Depression Visibility Wind Speed Wind Dir Waves Ship Positions

Peace

Owner: BOWMAN, ERIC L, VENTURA, CA. More information available from US FCC via Universal Licensing System and Coast Guard Vessel Documentation Center.

Last reported at 2018-Jun-19 12:30 UTC. Time now 2018-Jun-19 12:32 UTC.
Position N 34°09' W 119°23'.

Length 20 m.

Type: Diving. MMSI: 367166830.

Date/timePositionNaut miles runAvg speedWind from/ knotsBaromVisibWave heightAir tempDewpointWater temp
2018-Jun-19 12:30N 34°09' W 119°23'5 9.5
2018-Jun-19 12:00N 34°12' W 119°19'4 7.4
2018-Jun-19 11:30N 34°15' W 119°16'0 0.1
2018-Jun-19 11:00N 34°15' W 119°16'0 0.0
2018-Jun-19 10:30N 34°15' W 119°16'0 0.0
2018-Jun-19 10:00N 34°15' W 119°16'0 0.0
2018-Jun-19 09:30N 34°15' W 119°16'0 0.0
2018-Jun-19 09:00N 34°15' W 119°16'0 0.0
2018-Jun-19 08:30N 34°15' W 119°16'0 0.0
2018-Jun-19 08:00N 34°15' W 119°16'0 0.0
2018-Jun-19 07:30N 34°15' W 119°16'0 0.0
2018-Jun-19 07:00N 34°15' W 119°16'0 0.0
2018-Jun-19 06:27N 34°15' W 119°16'0 0.0
2018-Jun-19 06:00N 34°15' W 119°16'0 0.0
2018-Jun-19 05:30N 34°15' W 119°16'0 0.0
2018-Jun-19 05:00N 34°15' W 119°16'0 0.0
2018-Jun-19 04:30N 34°15' W 119°16'0 0.0
2018-Jun-19 04:00N 34°15' W 119°16'0 0.0
2018-Jun-19 03:27N 34°15' W 119°16'0 0.0
2018-Jun-19 02:57N 34°15' W 119°16'0 0.0
2018-Jun-19 02:30N 34°15' W 119°16'0 0.0
2018-Jun-19 02:00N 34°15' W 119°16'0 0.0
2018-Jun-19 01:27N 34°15' W 119°16'0 0.0
2018-Jun-19 01:00N 34°15' W 119°16'0 0.0
2018-Jun-19 00:30N 34°15' W 119°16'1 1.5
2018-Jun-19 00:00N 34°14' W 119°17'5 9.4
2018-Jun-18 23:28N 34°11' W 119°22'5 9.4
2018-Jun-18 22:56N 34°08' W 119°26'5 9.8
2018-Jun-18 22:25N 34°04' W 119°29'8 0.2
2018-Jun-17 13:09N 33°56' W 119°30'3 9.3
2018-Jun-17 12:51N 33°54' W 119°28'3 9.2
2018-Jun-17 12:30N 33°52' W 119°25'5 9.4
2018-Jun-17 12:00N 33°49' W 119°21'5 9.6
2018-Jun-17 11:30N 33°45' W 119°17'6 9.7
2018-Jun-17 10:52N 33°40' W 119°12'14 0.9
2018-Jun-16 19:11N 33°29' W 119°03'12 2.0
2018-Jun-16 13:05N 33°41' W 119°07'1 8.5
2018-Jun-16 12:57N 33°42' W 119°07'4 8.4
2018-Jun-16 12:29N 33°46' W 119°08'4 8.4
2018-Jun-16 12:00N 33°50' W 119°09'5 8.6
2018-Jun-16 11:22N 33°55' W 119°11'3 8.8
2018-Jun-16 11:00N 33°58' W 119°12'5 8.7
2018-Jun-16 10:24N 34°03' W 119°14'4 9.6
2018-Jun-16 09:57N 34°07' W 119°15'4 9.6
2018-Jun-16 09:30N 34°11' W 119°17'2 0.1
2018-Jun-15 16:51N 34°09' W 119°17'6 0.3
2018-Jun-14 22:15N 34°15' W 119°16'0 0.0
2018-Jun-14 15:00N 34°15' W 119°16'0 0.0
2018-Jun-13 21:00N 34°15' W 119°16'0 0.0
2018-Jun-13 20:12N 34°15' W 119°16'0 0.0
2018-Jun-13 19:06N 34°15' W 119°16'0 0.0
2018-Jun-13 19:00N 34°15' W 119°16'0 0.0
2018-Jun-13 18:30N 34°15' W 119°16'0 0.0
2018-Jun-13 17:00N 34°15' W 119°16'0 0.0
2018-Jun-13 16:27N 34°15' W 119°16'0 0.0
2018-Jun-13 00:00N 34°15' W 119°16'0 0.3
2018-Jun-12 23:30N 34°15' W 119°16'4 7.9
2018-Jun-12 23:00N 34°14' W 119°20'5 9.3
2018-Jun-12 22:29N 34°12' W 119°26'4 9.2
2018-Jun-12 22:00N 34°10' W 119°31'5 9.0
2018-Jun-12 21:29N 34°08' W 119°36'5 9.4
2018-Jun-12 21:00N 34°06' W 119°41'4 8.8
2018-Jun-12 20:30N 34°05' W 119°46'3 2.3
2018-Jun-12 19:13N 34°03' W 119°49'1 6.2
2018-Jun-12 19:00N 34°04' W 119°50'0 0.4
2018-Jun-12 17:49N 34°04' W 119°51'2 6.4
2018-Jun-12 17:30N 34°05' W 119°53'2 1.3
2018-Jun-12 15:41N 34°03' W 119°56'1 0.8
2018-Jun-12 14:22N 34°04' W 119°55'3 8.4
2018-Jun-12 13:59N 34°04' W 119°52'6 9.5
2018-Jun-12 13:21N 34°03' W 119°44'2 5.0
2018-Jun-12 12:53N 34°02' W 119°42'0 0.0
2018-Jun-12 12:26N 34°02' W 119°42'0 0.0
2018-Jun-12 11:47N 34°02' W 119°42'0 0.0
2018-Jun-12 11:20N 34°02' W 119°42'0 0.0
2018-Jun-12 10:59N 34°02' W 119°42'0 0.0
2018-Jun-12 10:29N 34°02' W 119°42'0 0.0
2018-Jun-12 09:50N 34°02' W 119°42'0 0.0
2018-Jun-12 09:29N 34°02' W 119°42'0 0.0
2018-Jun-12 08:59N 34°02' W 119°42'0 0.0
2018-Jun-12 07:41N 34°02' W 119°42'0 0.0
2018-Jun-12 07:20N 34°02' W 119°42'0 0.0
2018-Jun-12 05:44N 34°02' W 119°42'0 0.0
2018-Jun-12 05:23N 34°02' W 119°42'0 0.0
2018-Jun-12 04:56N 34°02' W 119°42'0 0.0
2018-Jun-12 04:20N 34°02' W 119°42'0 0.0
2018-Jun-12 03:56N 34°02' W 119°42'0 0.0
2018-Jun-12 03:29N 34°02' W 119°42'0 0.0
2018-Jun-12 02:44N 34°02' W 119°42'0 0.0
2018-Jun-12 02:26N 34°02' W 119°42'0 0.0
2018-Jun-12 00:50N 34°02' W 119°42'2 5.7
2018-Jun-12 00:29N 34°03' W 119°44'0 0.0
2018-Jun-11 23:44N 34°03' W 119°44'0 0.3
2018-Jun-11 23:29N 34°03' W 119°44'1 1.1
2018-Jun-11 22:38N 34°03' W 119°45'0 0.0
2018-Jun-11 22:23N 34°03' W 119°45'1 1.1
2018-Jun-11 21:54N 34°04' W 119°46'3 1.9
2018-Jun-11 20:04N 34°04' W 119°50'0 1.0
2018-Jun-11 19:58N 34°04' W 119°50'5 8.7
2018-Jun-11 19:21N 34°03' W 119°43'1 3.5
2018-Jun-11 19:00N 34°02' W 119°42'0 0.0
2018-Jun-11 18:24N 34°02' W 119°42'1 2.9
2018-Jun-11 18:00N 34°02' W 119°41'5 3.3
2018-Jun-11 16:29N 34°03' W 119°35'3 4.2
2018-Jun-11 15:46N 34°02' W 119°31'1 2.4
2018-Jun-11 15:18N 34°03' W 119°33'0 0.0
2018-Jun-11 14:51N 34°03' W 119°33'1 3.1
2018-Jun-11 14:30N 34°03' W 119°32'4 8.8
2018-Jun-11 14:00N 34°06' W 119°27'5 9.1
2018-Jun-11 13:30N 34°09' W 119°23'6 9.1
2018-Jun-11 12:50N 34°13' W 119°18'2 6.9
2018-Jun-11 12:30N 34°15' W 119°16'0 0.2
2018-Jun-11 11:50N 34°15' W 119°16'0 0.0
2018-Jun-11 11:26N 34°15' W 119°16'0 0.0
2018-Jun-11 10:56N 34°15' W 119°16'0 0.0
2018-Jun-11 10:20N 34°15' W 119°16'0 0.0
2018-Jun-11 09:08N 34°15' W 119°16'0 0.0
2018-Jun-11 08:56N 34°15' W 119°16'0 0.0
2018-Jun-11 08:02N 34°15' W 119°16'0 0.0
2018-Jun-11 07:56N 34°15' W 119°16'0 0.0
2018-Jun-11 07:29N 34°15' W 119°16'0 0.0
2018-Jun-11 06:59N 34°15' W 119°16'0 0.0
2018-Jun-11 06:29N 34°15' W 119°16'0 0.0
2018-Jun-11 05:59N 34°15' W 119°16'0 0.0
2018-Jun-11 05:26N 34°15' W 119°16'0 0.0
2018-Jun-11 04:56N 34°15' W 119°16'0 0.0
2018-Jun-11 04:29N 34°15' W 119°16'0 0.0
2018-Jun-11 03:56N 34°15' W 119°16'0 0.0
2018-Jun-11 03:26N 34°15' W 119°16'0 0.0
2018-Jun-11 01:50N 34°15' W 119°16'0 0.0
2018-Jun-11 01:23N 34°15' W 119°16'0 0.0
2018-Jun-11 00:53N 34°15' W 119°16'3 6.8
2018-Jun-11 00:29N 34°13' W 119°19'6 9.7
2018-Jun-10 23:49N 34°09' W 119°25'610.3
2018-Jun-10 23:16N 34°05' W 119°30'3 9.8
2018-Jun-10 23:00N 34°04' W 119°32'1 1.3
2018-Jun-10 22:15N 34°03' W 119°33'0 0.0
2018-Jun-10 21:51N 34°03' W 119°33'2 0.4
2018-Jun-10 16:35N 34°02' W 119°31'1 9.3
2018-Jun-10 16:29N 34°03' W 119°30'4 8.6
2018-Jun-10 16:00N 34°06' W 119°27'4 9.0
2018-Jun-10 15:30N 34°09' W 119°23'5 9.1
2018-Jun-10 14:56N 34°13' W 119°19'3 2.9
2018-Jun-10 13:57N 34°15' W 119°16'0 0.0
2018-Jun-10 13:27N 34°15' W 119°16'0 0.0
2018-Jun-10 13:00N 34°15' W 119°16'0 0.0
2018-Jun-10 12:30N 34°15' W 119°16'0 0.0
2018-Jun-10 12:00N 34°15' W 119°16'0 0.0
2018-Jun-10 11:30N 34°15' W 119°16'0 0.0
2018-Jun-10 10:57N 34°15' W 119°16'0 0.0
2018-Jun-10 10:27N 34°15' W 119°16'0 0.0
2018-Jun-10 10:00N 34°15' W 119°16'0 0.0
2018-Jun-10 09:30N 34°15' W 119°16'0 0.0
2018-Jun-10 09:00N 34°15' W 119°16'0 0.0
2018-Jun-10 08:30N 34°15' W 119°16'0 0.0
2018-Jun-10 08:00N 34°15' W 119°16'0 0.0
2018-Jun-10 07:30N 34°15' W 119°16'0 0.0
2018-Jun-10 06:54N 34°15' W 119°16'0 0.0
2018-Jun-10 06:30N 34°15' W 119°16'0 0.0
2018-Jun-10 06:00N 34°15' W 119°16'0 0.0
2018-Jun-10 05:30N 34°15' W 119°16'0 0.0
2018-Jun-10 05:00N 34°15' W 119°16'0 0.0
2018-Jun-10 04:30N 34°15' W 119°16'0 0.0
2018-Jun-10 04:00N 34°15' W 119°16'0 0.0
2018-Jun-10 03:30N 34°15' W 119°16'0 0.0
2018-Jun-10 03:00N 34°15' W 119°16'0 0.0
2018-Jun-10 02:30N 34°15' W 119°16'0 0.0
2018-Jun-10 02:00N 34°15' W 119°16'0 0.0
2018-Jun-10 01:30N 34°15' W 119°16'0 0.0
2018-Jun-10 01:00N 34°15' W 119°16'0 0.0
2018-Jun-10 00:21N 34°15' W 119°16'0 0.0
2018-Jun-10 00:00N 34°15' W 119°16'0 0.0
2018-Jun-09 23:30N 34°15' W 119°16'0 0.0
2018-Jun-09 23:00N 34°15' W 119°16'1 2.5
2018-Jun-09 22:30N 34°14' W 119°17'7 9.8
2018-Jun-09 21:48N 34°10' W 119°24'3 9.9
2018-Jun-09 21:30N 34°08' W 119°26'  
Track history (hours):
 
Tides and Currents Weather Stations Pressure Air Temp Water Temp Dewpoint Dewpoint Depression Visibility Wind Speed Wind Dir Waves Ship Positions

Peace

Owner: BOWMAN, ERIC L, VENTURA, CA. More information available from US FCC via Universal Licensing System and Coast Guard Vessel Documentation Center.

Last reported at 2018-Jun-19 12:30 UTC. Time now 2018-Jun-19 12:32 UTC.
Position N 34°09' W 119°23'.

Length 20 m.

Type: Diving. MMSI: 367166830.

Date/timePositionNaut miles runAvg speedWind from/ knotsBaromVisibWave heightAir tempDewpointWater temp
2018-Jun-19 12:30N 34°09' W 119°23'5 9.5
2018-Jun-19 12:00N 34°12' W 119°19'4 7.4
2018-Jun-19 11:30N 34°15' W 119°16'0 0.1
2018-Jun-19 11:00N 34°15' W 119°16'0 0.0
2018-Jun-19 10:30N 34°15' W 119°16'0 0.0
2018-Jun-19 10:00N 34°15' W 119°16'0 0.0
2018-Jun-19 09:30N 34°15' W 119°16'0 0.0
2018-Jun-19 09:00N 34°15' W 119°16'0 0.0
2018-Jun-19 08:30N 34°15' W 119°16'0 0.0
2018-Jun-19 08:00N 34°15' W 119°16'0 0.0
2018-Jun-19 07:30N 34°15' W 119°16'0 0.0
2018-Jun-19 07:00N 34°15' W 119°16'0 0.0
2018-Jun-19 06:27N 34°15' W 119°16'0 0.0
2018-Jun-19 06:00N 34°15' W 119°16'0 0.0
2018-Jun-19 05:30N 34°15' W 119°16'0 0.0
2018-Jun-19 05:00N 34°15' W 119°16'0 0.0
2018-Jun-19 04:30N 34°15' W 119°16'0 0.0
2018-Jun-19 04:00N 34°15' W 119°16'0 0.0
2018-Jun-19 03:27N 34°15' W 119°16'0 0.0
2018-Jun-19 02:57N 34°15' W 119°16'0 0.0
2018-Jun-19 02:30N 34°15' W 119°16'0 0.0
2018-Jun-19 02:00N 34°15' W 119°16'0 0.0
2018-Jun-19 01:27N 34°15' W 119°16'0 0.0
2018-Jun-19 01:00N 34°15' W 119°16'0 0.0
2018-Jun-19 00:30N 34°15' W 119°16'1 1.5
2018-Jun-19 00:00N 34°14' W 119°17'5 9.4
2018-Jun-18 23:28N 34°11' W 119°22'5 9.4
2018-Jun-18 22:56N 34°08' W 119°26'5 9.8
2018-Jun-18 22:25N 34°04' W 119°29'8 0.2
2018-Jun-17 13:09N 33°56' W 119°30'3 9.3
2018-Jun-17 12:51N 33°54' W 119°28'3 9.2
2018-Jun-17 12:30N 33°52' W 119°25'5 9.4
2018-Jun-17 12:00N 33°49' W 119°21'5 9.6
2018-Jun-17 11:30N 33°45' W 119°17'6 9.7
2018-Jun-17 10:52N 33°40' W 119°12'14 0.9
2018-Jun-16 19:11N 33°29' W 119°03'12 2.0
2018-Jun-16 13:05N 33°41' W 119°07'1 8.5
2018-Jun-16 12:57N 33°42' W 119°07'4 8.4
2018-Jun-16 12:29N 33°46' W 119°08'4 8.4
2018-Jun-16 12:00N 33°50' W 119°09'5 8.6
2018-Jun-16 11:22N 33°55' W 119°11'3 8.8
2018-Jun-16 11:00N 33°58' W 119°12'5 8.7
2018-Jun-16 10:24N 34°03' W 119°14'4 9.6
2018-Jun-16 09:57N 34°07' W 119°15'4 9.6
2018-Jun-16 09:30N 34°11' W 119°17'2 0.1
2018-Jun-15 16:51N 34°09' W 119°17'6 0.3
2018-Jun-14 22:15N 34°15' W 119°16'0 0.0
2018-Jun-14 15:00N 34°15' W 119°16'0 0.0
2018-Jun-13 21:00N 34°15' W 119°16'0 0.0
2018-Jun-13 20:12N 34°15' W 119°16'0 0.0
2018-Jun-13 19:06N 34°15' W 119°16'0 0.0
2018-Jun-13 19:00N 34°15' W 119°16'0 0.0
2018-Jun-13 18:30N 34°15' W 119°16'0 0.0
2018-Jun-13 17:00N 34°15' W 119°16'0 0.0
2018-Jun-13 16:27N 34°15' W 119°16'0 0.0
2018-Jun-13 00:00N 34°15' W 119°16'0 0.3
2018-Jun-12 23:30N 34°15' W 119°16'4 7.9
2018-Jun-12 23:00N 34°14' W 119°20'5 9.3
2018-Jun-12 22:29N 34°12' W 119°26'4 9.2
2018-Jun-12 22:00N 34°10' W 119°31'5 9.0
2018-Jun-12 21:29N 34°08' W 119°36'5 9.4
2018-Jun-12 21:00N 34°06' W 119°41'4 8.8
2018-Jun-12 20:30N 34°05' W 119°46'3 2.3
2018-Jun-12 19:13N 34°03' W 119°49'1 6.2
2018-Jun-12 19:00N 34°04' W 119°50'0 0.4
2018-Jun-12 17:49N 34°04' W 119°51'2 6.4
2018-Jun-12 17:30N 34°05' W 119°53'2 1.3
2018-Jun-12 15:41N 34°03' W 119°56'1 0.8
2018-Jun-12 14:22N 34°04' W 119°55'3 8.4
2018-Jun-12 13:59N 34°04' W 119°52'6 9.5
2018-Jun-12 13:21N 34°03' W 119°44'2 5.0
2018-Jun-12 12:53N 34°02' W 119°42'0 0.0
2018-Jun-12 12:26N 34°02' W 119°42'0 0.0
2018-Jun-12 11:47N 34°02' W 119°42'0 0.0
2018-Jun-12 11:20N 34°02' W 119°42'0 0.0
2018-Jun-12 10:59N 34°02' W 119°42'0 0.0
2018-Jun-12 10:29N 34°02' W 119°42'0 0.0
2018-Jun-12 09:50N 34°02' W 119°42'0 0.0
2018-Jun-12 09:29N 34°02' W 119°42'0 0.0
2018-Jun-12 08:59N 34°02' W 119°42'0 0.0
2018-Jun-12 07:41N 34°02' W 119°42'0 0.0
2018-Jun-12 07:20N 34°02' W 119°42'0 0.0
2018-Jun-12 05:44N 34°02' W 119°42'0 0.0
2018-Jun-12 05:23N 34°02' W 119°42'0 0.0
2018-Jun-12 04:56N 34°02' W 119°42'0 0.0
2018-Jun-12 04:20N 34°02' W 119°42'0 0.0
2018-Jun-12 03:56N 34°02' W 119°42'0 0.0
2018-Jun-12 03:29N 34°02' W 119°42'0 0.0
2018-Jun-12 02:44N 34°02' W 119°42'0 0.0
2018-Jun-12 02:26N 34°02' W 119°42'0 0.0
2018-Jun-12 00:50N 34°02' W 119°42'2 5.7
2018-Jun-12 00:29N 34°03' W 119°44'0 0.0
2018-Jun-11 23:44N 34°03' W 119°44'0 0.3
2018-Jun-11 23:29N 34°03' W 119°44'1 1.1
2018-Jun-11 22:38N 34°03' W 119°45'0 0.0
2018-Jun-11 22:23N 34°03' W 119°45'1 1.1
2018-Jun-11 21:54N 34°04' W 119°46'3 1.9
2018-Jun-11 20:04N 34°04' W 119°50'0 1.0
2018-Jun-11 19:58N 34°04' W 119°50'5 8.7
2018-Jun-11 19:21N 34°03' W 119°43'1 3.5
2018-Jun-11 19:00N 34°02' W 119°42'0 0.0
2018-Jun-11 18:24N 34°02' W 119°42'1 2.9
2018-Jun-11 18:00N 34°02' W 119°41'5 3.3
2018-Jun-11 16:29N 34°03' W 119°35'3 4.2
2018-Jun-11 15:46N 34°02' W 119°31'1 2.4
2018-Jun-11 15:18N 34°03' W 119°33'0 0.0
2018-Jun-11 14:51N 34°03' W 119°33'1 3.1
2018-Jun-11 14:30N 34°03' W 119°32'4 8.8
2018-Jun-11 14:00N 34°06' W 119°27'5 9.1
2018-Jun-11 13:30N 34°09' W 119°23'6 9.1
2018-Jun-11 12:50N 34°13' W 119°18'2 6.9
2018-Jun-11 12:30N 34°15' W 119°16'0 0.2
2018-Jun-11 11:50N 34°15' W 119°16'0 0.0
2018-Jun-11 11:26N 34°15' W 119°16'0 0.0
2018-Jun-11 10:56N 34°15' W 119°16'0 0.0
2018-Jun-11 10:20N 34°15' W 119°16'0 0.0
2018-Jun-11 09:08N 34°15' W 119°16'0 0.0
2018-Jun-11 08:56N 34°15' W 119°16'0 0.0
2018-Jun-11 08:02N 34°15' W 119°16'0 0.0
2018-Jun-11 07:56N 34°15' W 119°16'0 0.0
2018-Jun-11 07:29N 34°15' W 119°16'0 0.0
2018-Jun-11 06:59N 34°15' W 119°16'0 0.0
2018-Jun-11 06:29N 34°15' W 119°16'0 0.0
2018-Jun-11 05:59N 34°15' W 119°16'0 0.0
2018-Jun-11 05:26N 34°15' W 119°16'0 0.0
2018-Jun-11 04:56N 34°15' W 119°16'0 0.0
2018-Jun-11 04:29N 34°15' W 119°16'0 0.0
2018-Jun-11 03:56N 34°15' W 119°16'0 0.0
2018-Jun-11 03:26N 34°15' W 119°16'0 0.0
2018-Jun-11 01:50N 34°15' W 119°16'0 0.0
2018-Jun-11 01:23N 34°15' W 119°16'0 0.0
2018-Jun-11 00:53N 34°15' W 119°16'3 6.8
2018-Jun-11 00:29N 34°13' W 119°19'6 9.7
2018-Jun-10 23:49N 34°09' W 119°25'610.3
2018-Jun-10 23:16N 34°05' W 119°30'3 9.8
2018-Jun-10 23:00N 34°04' W 119°32'1 1.3
2018-Jun-10 22:15N 34°03' W 119°33'0 0.0
2018-Jun-10 21:51N 34°03' W 119°33'2 0.4
2018-Jun-10 16:35N 34°02' W 119°31'1 9.3
2018-Jun-10 16:29N 34°03' W 119°30'4 8.6
2018-Jun-10 16:00N 34°06' W 119°27'4 9.0
2018-Jun-10 15:30N 34°09' W 119°23'5 9.1
2018-Jun-10 14:56N 34°13' W 119°19'3 2.9
2018-Jun-10 13:57N 34°15' W 119°16'0 0.0
2018-Jun-10 13:27N 34°15' W 119°16'0 0.0
2018-Jun-10 13:00N 34°15' W 119°16'0 0.0
2018-Jun-10 12:30N 34°15' W 119°16'0 0.0
2018-Jun-10 12:00N 34°15' W 119°16'0 0.0
2018-Jun-10 11:30N 34°15' W 119°16'0 0.0
2018-Jun-10 10:57N 34°15' W 119°16'0 0.0
2018-Jun-10 10:27N 34°15' W 119°16'0 0.0
2018-Jun-10 10:00N 34°15' W 119°16'0 0.0
2018-Jun-10 09:30N 34°15' W 119°16'0 0.0
2018-Jun-10 09:00N 34°15' W 119°16'0 0.0
2018-Jun-10 08:30N 34°15' W 119°16'0 0.0
2018-Jun-10 08:00N 34°15' W 119°16'0 0.0
2018-Jun-10 07:30N 34°15' W 119°16'0 0.0
2018-Jun-10 06:54N 34°15' W 119°16'0 0.0
2018-Jun-10 06:30N 34°15' W 119°16'0 0.0
2018-Jun-10 06:00N 34°15' W 119°16'0 0.0
2018-Jun-10 05:30N 34°15' W 119°16'0 0.0
2018-Jun-10 05:00N 34°15' W 119°16'0 0.0
2018-Jun-10 04:30N 34°15' W 119°16'0 0.0
2018-Jun-10 04:00N 34°15' W 119°16'0 0.0
2018-Jun-10 03:30N 34°15' W 119°16'0 0.0
2018-Jun-10 03:00N 34°15' W 119°16'0 0.0
2018-Jun-10 02:30N 34°15' W 119°16'0 0.0
2018-Jun-10 02:00N 34°15' W 119°16'0 0.0
2018-Jun-10 01:30N 34°15' W 119°16'0 0.0
2018-Jun-10 01:00N 34°15' W 119°16'0 0.0
2018-Jun-10 00:21N 34°15' W 119°16'0 0.0
2018-Jun-10 00:00N 34°15' W 119°16'0 0.0
2018-Jun-09 23:30N 34°15' W 119°16'0 0.0
2018-Jun-09 23:00N 34°15' W 119°16'1 2.5
2018-Jun-09 22:30N 34°14' W 119°17'7 9.8
2018-Jun-09 21:48N 34°10' W 119°24'3 9.9
2018-Jun-09 21:30N 34°08' W 119°26'  

Dump ship's entire track history